Terminal Aerodrome Forecast
Issued by NWS

Home | Current Version | Previous Version | Text Only | Print | Product List | Glossary On
Versions: 1 2 3 4 5 6 7 8 9 10 11 12 13 14 15 16 17 18 19 20 21 22 23
345
FTAK31 PAFA 101739
TAFAFA
TAF
PAFA 101739Z 1018/1124 06003KT P6SM SKC
     FM110500 04004KT P6SM VCSH FEW060 BKN100
     FM111000 04004KT P6SM -SHSN BKN040 BKN100
     FM111700 VRB03KT P6SM VCSH SCT040 BKN100 OVC200=

USA.gov is the U.S. government's official web portal to all federal, state and local government web resources and services.